createdAt,value
2017-09-30T00:01:40.592Z,30.70
2017-09-30T00:04:07.255Z,31.45
2017-09-30T00:06:33.943Z,30.20
2017-09-30T00:09:00.616Z,30.65
2017-09-30T00:11:27.304Z,30.25
2017-09-30T00:13:53.969Z,30.92
2017-09-30T00:16:20.627Z,31.27
2017-09-30T00:18:47.291Z,29.67
2017-09-30T00:21:13.955Z,28.40
2017-09-30T00:23:40.645Z,29.65
2017-09-30T00:26:07.307Z,29.40
2017-09-30T00:28:33.994Z,31.70
2017-09-30T00:31:00.658Z,31.98
2017-09-30T00:33:27.347Z,30.55
2017-09-30T00:35:54.012Z,30.90
2017-09-30T00:38:20.695Z,29.92
2017-09-30T00:40:47.359Z,30.50
2017-09-30T00:43:14.052Z,30.08
2017-09-30T00:45:40.715Z,30.00
2017-09-30T00:48:07.383Z,29.52
2017-09-30T00:50:34.043Z,31.40
2017-09-30T00:53:00.707Z,29.63
2017-09-30T00:55:27.372Z,29.63
2017-09-30T00:57:54.048Z,30.98
2017-09-30T01:00:20.731Z,31.85
2017-09-30T01:02:47.391Z,31.75
2017-09-30T01:05:14.079Z,31.90
2017-09-30T01:07:40.738Z,32.03
2017-09-30T01:10:07.428Z,32.90
2017-09-30T01:12:34.092Z,34.15
2017-09-30T01:15:00.775Z,33.67
2017-09-30T01:17:27.438Z,35.22
2017-09-30T01:19:54.134Z,36.25
2017-09-30T01:22:20.908Z,34.65
2017-09-30T01:24:47.578Z,35.80
2017-09-30T01:27:14.245Z,35.28
2017-09-30T01:29:40.912Z,35.05
2017-09-30T01:32:07.584Z,35.85
2017-09-30T01:34:34.247Z,36.67
2017-09-30T01:37:00.911Z,37.83
2017-09-30T01:39:27.575Z,38.05
2017-09-30T01:41:54.243Z,40.25
2017-09-30T01:44:20.908Z,40.12
2017-09-30T01:46:47.594Z,42.62
2017-09-30T01:49:14.263Z,41.63
2017-09-30T01:51:40.951Z,43.40
2017-09-30T01:54:07.611Z,44.38
2017-09-30T01:56:34.295Z,44.13
2017-09-30T01:59:00.962Z,44.20
2017-09-30T02:01:27.623Z,49.53
2017-09-30T02:03:54.287Z,46.85
2017-09-30T02:06:20.947Z,48.33
2017-09-30T02:08:47.607Z,47.90
2017-09-30T02:11:14.272Z,50.05
2017-09-30T02:13:40.931Z,48.20
2017-09-30T02:16:07.599Z,47.78
2017-09-30T02:18:34.260Z,49.60
2017-09-30T02:21:00.928Z,51.55
2017-09-30T02:23:27.612Z,48.13
2017-09-30T02:25:54.278Z,51.05
2017-09-30T02:28:20.971Z,49.25
2017-09-30T02:30:47.635Z,49.38
2017-09-30T02:33:14.323Z,48.00
2017-09-30T02:35:40.987Z,48.40
2017-09-30T02:38:07.647Z,48.65
2017-09-30T02:40:34.311Z,48.33
2017-09-30T02:43:00.971Z,50.55
2017-09-30T02:45:27.635Z,53.35
2017-09-30T02:47:54.302Z,49.90
2017-09-30T02:50:20.967Z,54.97
2017-09-30T02:52:47.636Z,56.35
2017-09-30T02:55:14.332Z,52.90
2017-09-30T02:57:40.995Z,51.90
2017-09-30T03:00:07.787Z,57.95
2017-09-30T03:02:34.455Z,56.70
2017-09-30T03:05:01.152Z,58.72
2017-09-30T03:07:27.819Z,57.47
2017-09-30T03:09:54.586Z,56.70
2017-09-30T03:12:21.251Z,62.38
2017-09-30T03:14:47.916Z,62.75
2017-09-30T03:17:14.587Z,67.32
2017-09-30T03:19:41.252Z,62.42
2017-09-30T03:22:07.925Z,66.30
2017-09-30T03:24:34.595Z,67.10
2017-09-30T03:27:01.264Z,63.28
2017-09-30T03:29:27.936Z,65.75
2017-09-30T03:31:54.607Z,62.05
2017-09-30T03:34:21.275Z,62.58
2017-09-30T03:36:47.943Z,63.35
2017-09-30T03:39:14.611Z,60.63
2017-09-30T03:41:41.273Z,60.40
2017-09-30T03:44:07.951Z,57.70
2017-09-30T03:46:34.616Z,58.28
2017-09-30T03:49:01.283Z,65.32
2017-09-30T03:51:27.987Z,61.15
2017-09-30T03:53:54.651Z,59.92
2017-09-30T03:56:21.342Z,65.57
2017-09-30T03:58:48.007Z,61.03
2017-09-30T04:01:14.672Z,58.85
2017-09-30T04:03:41.342Z,60.50
2017-09-30T04:06:08.007Z,62.03
2017-09-30T04:08:34.675Z,55.97
2017-09-30T04:11:01.340Z,61.28
2017-09-30T04:13:28.014Z,58.05
2017-09-30T04:15:54.684Z,59.85
2017-09-30T04:18:21.351Z,60.53
2017-09-30T04:20:48.015Z,61.75
2017-09-30T04:23:14.679Z,61.15
2017-09-30T04:25:41.345Z,66.87
2017-09-30T04:28:08.015Z,66.28
2017-09-30T04:30:34.683Z,64.32
2017-09-30T04:33:01.351Z,69.50
2017-09-30T04:35:28.031Z,64.43
2017-09-30T04:37:54.723Z,65.90
2017-09-30T04:40:21.396Z,61.55
2017-09-30T04:42:48.067Z,65.43
2017-09-30T04:45:14.739Z,66.00
2017-09-30T04:47:41.410Z,71.70
2017-09-30T04:50:08.104Z,67.82
2017-09-30T04:52:34.775Z,64.30
2017-09-30T04:55:01.547Z,62.38
2017-09-30T04:57:28.211Z,61.37
2017-09-30T04:59:54.898Z,63.15
2017-09-30T05:02:21.563Z,64.03
2017-09-30T05:04:48.250Z,61.70
2017-09-30T05:07:14.915Z,56.90
2017-09-30T05:09:41.608Z,61.85
2017-09-30T05:12:08.309Z,65.32
2017-09-30T05:14:35.011Z,62.58
2017-09-30T05:17:01.675Z,64.03
2017-09-30T05:19:28.396Z,59.80
2017-09-30T05:21:55.059Z,61.08
2017-09-30T05:24:21.723Z,59.65
2017-09-30T05:26:48.411Z,56.28
2017-09-30T05:29:15.075Z,56.15
2017-09-30T05:31:41.759Z,56.83
2017-09-30T05:34:08.423Z,58.30
2017-09-30T05:36:35.115Z,55.58
2017-09-30T05:39:01.779Z,57.10
2017-09-30T05:41:28.459Z,55.05
2017-09-30T05:43:55.124Z,52.78
2017-09-30T05:46:21.807Z,57.00
2017-09-30T05:48:48.472Z,57.67
2017-09-30T05:51:15.135Z,58.35
2017-09-30T05:53:41.795Z,53.87
2017-09-30T05:56:08.456Z,56.30
2017-09-30T05:58:35.147Z,55.67
2017-09-30T06:01:01.809Z,53.75
2017-09-30T06:03:28.496Z,54.22
2017-09-30T06:05:55.168Z,53.33
2017-09-30T06:08:21.856Z,54.20
2017-09-30T06:13:21.724Z,54.33
2017-09-30T06:15:48.388Z,58.08
2017-09-30T06:18:15.075Z,57.03
2017-09-30T06:20:41.750Z,56.33
2017-09-30T06:23:08.440Z,54.55
2017-09-30T06:25:35.104Z,56.53
2017-09-30T06:28:01.796Z,55.50
2017-09-30T06:30:28.460Z,54.08
2017-09-30T06:32:55.175Z,56.20
2017-09-30T06:35:21.835Z,54.53
2017-09-30T06:37:48.495Z,52.45
2017-09-30T06:40:15.155Z,52.90
2017-09-30T06:42:41.826Z,54.10
2017-09-30T06:45:08.492Z,54.05
2017-09-30T06:47:35.151Z,54.28
2017-09-30T06:50:01.839Z,54.83
2017-09-30T06:52:28.860Z,53.25
2017-09-30T06:54:55.591Z,53.58
2017-09-30T06:57:22.251Z,55.53
2017-09-30T06:59:48.940Z,54.90
2017-09-30T07:02:15.608Z,51.53
2017-09-30T07:04:42.296Z,50.72
2017-09-30T07:07:08.960Z,51.58
2017-09-30T07:09:35.764Z,50.35
2017-09-30T07:12:02.444Z,53.17
2017-09-30T07:14:29.931Z,53.08
2017-09-30T07:16:56.664Z,52.72
2017-09-30T07:19:23.331Z,53.85
2017-09-30T07:21:50.000Z,51.88
2017-09-30T07:24:16.668Z,50.10
2017-09-30T07:26:43.335Z,52.65
2017-09-30T07:29:10.007Z,49.45
2017-09-30T07:31:36.692Z,52.53
2017-09-30T07:34:03.363Z,50.80
2017-09-30T07:36:30.067Z,52.00
2017-09-30T07:38:56.740Z,50.10
2017-09-30T07:41:23.468Z,57.10
2017-09-30T07:43:50.132Z,52.47
2017-09-30T07:46:16.794Z,57.05
2017-09-30T07:48:43.463Z,55.05
2017-09-30T07:51:10.127Z,51.45
2017-09-30T07:53:36.791Z,47.85
2017-09-30T07:56:03.457Z,41.30
2017-09-30T07:58:30.123Z,42.03
2017-09-30T08:00:56.787Z,40.80
2017-09-30T08:03:23.462Z,40.75
2017-09-30T08:05:50.128Z,38.65
2017-09-30T08:08:16.799Z,36.38
2017-09-30T08:10:43.510Z,36.85
2017-09-30T08:13:10.175Z,35.05
2017-09-30T08:15:36.847Z,35.42
2017-09-30T08:18:03.540Z,33.30
2017-09-30T08:20:30.199Z,30.35
2017-09-30T08:22:56.887Z,31.87
2017-09-30T08:25:23.552Z,32.55
2017-09-30T08:27:50.244Z,30.25
2017-09-30T08:30:16.907Z,30.58
2017-09-30T08:32:43.608Z,27.60
2017-09-30T08:35:10.271Z,28.35
2017-09-30T08:37:36.935Z,29.23
2017-09-30T08:40:03.601Z,28.30
2017-09-30T08:42:30.268Z,27.48
2017-09-30T08:44:56.931Z,25.80
2017-09-30T08:47:23.603Z,26.10
2017-09-30T08:49:50.268Z,27.23
2017-09-30T08:52:16.934Z,27.62
2017-09-30T08:54:43.612Z,29.37
2017-09-30T08:57:10.279Z,27.48
2017-09-30T08:59:36.971Z,27.02
2017-09-30T09:02:03.640Z,26.12
2017-09-30T09:04:30.328Z,29.80
2017-09-30T09:06:56.995Z,28.42
2017-09-30T09:09:23.699Z,26.45
2017-09-30T09:11:50.372Z,25.73
2017-09-30T09:14:17.036Z,25.60
2017-09-30T09:16:43.707Z,26.60
2017-09-30T09:19:10.371Z,25.55
2017-09-30T09:21:37.035Z,26.73
2017-09-30T09:24:03.703Z,23.67
2017-09-30T09:26:30.375Z,24.35
2017-09-30T09:28:57.043Z,20.73
2017-09-30T09:31:23.711Z,20.92
2017-09-30T09:33:50.383Z,19.25
2017-09-30T09:36:17.052Z,21.85
2017-09-30T09:38:43.728Z,19.23
2017-09-30T09:41:10.440Z,17.25
2017-09-30T09:43:37.107Z,17.12
2017-09-30T09:46:03.773Z,15.52
2017-09-30T09:48:30.468Z,17.02
2017-09-30T09:50:57.147Z,15.68
2017-09-30T09:53:23.847Z,14.98
2017-09-30T09:55:50.523Z,14.35
2017-09-30T09:58:17.223Z,14.23
2017-09-30T10:00:43.900Z,13.43
2017-09-30T10:03:10.587Z,12.23
2017-09-30T10:05:37.255Z,12.50
2017-09-30T10:08:03.955Z,12.03
2017-09-30T10:10:30.620Z,14.23
2017-09-30T10:12:57.288Z,12.43
2017-09-30T10:15:23.950Z,12.83
2017-09-30T10:17:50.612Z,13.27
2017-09-30T10:20:17.300Z,13.43
2017-09-30T10:22:43.963Z,13.43
2017-09-30T10:25:10.650Z,12.83
2017-09-30T10:27:37.318Z,13.10
2017-09-30T10:30:04.120Z,12.50
2017-09-30T10:32:30.785Z,13.17
2017-09-30T10:34:57.491Z,11.90
2017-09-30T10:37:24.156Z,12.60
2017-09-30T10:39:50.820Z,12.77
2017-09-30T10:42:17.483Z,13.30
2017-09-30T10:44:44.169Z,12.97
2017-09-30T10:47:10.855Z,12.50
2017-09-30T10:49:37.519Z,13.57
2017-09-30T10:52:04.210Z,13.50
2017-09-30T10:54:30.874Z,14.47
2017-09-30T10:56:57.569Z,12.53
2017-09-30T10:59:24.236Z,13.10
2017-09-30T11:01:50.932Z,12.70
2017-09-30T11:04:17.595Z,13.87
2017-09-30T11:06:44.280Z,12.40
2017-09-30T11:09:10.939Z,12.13
2017-09-30T11:11:37.643Z,12.60
2017-09-30T11:14:04.316Z,12.77
2017-09-30T11:16:30.982Z,13.10
2017-09-30T11:18:57.648Z,12.50
2017-09-30T11:21:24.315Z,13.17
2017-09-30T11:23:51.003Z,13.77
2017-09-30T11:26:17.671Z,14.23
2017-09-30T11:28:44.360Z,13.53
2017-09-30T11:31:11.028Z,15.03
2017-09-30T11:33:37.715Z,15.80
2017-09-30T11:36:04.376Z,15.77
2017-09-30T11:38:31.068Z,15.53
2017-09-30T11:40:57.736Z,14.30
2017-09-30T11:43:24.399Z,15.53
2017-09-30T11:45:51.059Z,14.00
2017-09-30T11:48:17.719Z,13.50
2017-09-30T11:50:44.383Z,12.63
2017-09-30T11:53:11.043Z,12.57
2017-09-30T11:55:37.732Z,12.60
2017-09-30T11:58:04.394Z,12.07
2017-09-30T12:00:31.091Z,11.87
2017-09-30T12:02:57.763Z,11.23
2017-09-30T12:05:24.471Z,12.70
2017-09-30T12:07:51.136Z,13.50
2017-09-30T12:10:17.806Z,13.20
2017-09-30T12:12:44.471Z,12.93
2017-09-30T12:15:11.136Z,14.70
2017-09-30T12:17:37.796Z,14.87
2017-09-30T12:20:04.455Z,14.37
2017-09-30T12:22:31.119Z,14.30
2017-09-30T12:24:57.881Z,14.53
2017-09-30T12:27:24.567Z,13.80
2017-09-30T12:29:51.242Z,15.03
2017-09-30T12:32:17.935Z,16.07
2017-09-30T12:34:44.607Z,16.23
2017-09-30T12:37:11.307Z,16.10
2017-09-30T12:39:37.967Z,15.87
2017-09-30T12:42:04.632Z,15.77
2017-09-30T12:44:31.300Z,16.17
2017-09-30T12:46:57.971Z,17.20
2017-09-30T12:49:24.647Z,15.60
2017-09-30T12:51:51.312Z,15.77
2017-09-30T12:54:17.979Z,17.50
2017-09-30T12:56:44.639Z,15.37
2017-09-30T12:59:11.328Z,16.00
2017-09-30T13:01:37.987Z,14.93
2017-09-30T13:04:04.676Z,15.70
2017-09-30T13:06:31.346Z,17.17
2017-09-30T13:08:58.052Z,16.73
2017-09-30T13:11:24.716Z,17.70
2017-09-30T13:13:51.376Z,17.77
2017-09-30T13:16:18.043Z,18.17
2017-09-30T13:18:44.711Z,17.37
2017-09-30T13:21:11.376Z,16.23
2017-09-30T13:23:38.052Z,17.20
2017-09-30T13:26:04.715Z,16.03
2017-09-30T13:28:31.379Z,15.83
2017-09-30T13:30:58.043Z,15.80
2017-09-30T13:33:24.716Z,17.13
2017-09-30T13:35:51.383Z,17.97
2017-09-30T13:38:18.049Z,18.93
2017-09-30T13:40:44.738Z,18.97
2017-09-30T13:43:11.398Z,19.50
2017-09-30T13:45:38.087Z,17.23
2017-09-30T13:48:04.755Z,18.33
2017-09-30T13:50:31.418Z,18.23
2017-09-30T13:52:58.080Z,16.27
2017-09-30T13:55:24.747Z,18.93
2017-09-30T13:57:51.411Z,21.00
2017-09-30T14:00:18.079Z,23.37
2017-09-30T14:02:44.747Z,20.40
2017-09-30T14:05:11.406Z,20.70
2017-09-30T14:07:38.067Z,24.37
2017-09-30T14:10:04.727Z,24.73
2017-09-30T14:12:31.401Z,23.20
2017-09-30T14:14:58.064Z,24.37
2017-09-30T14:17:24.728Z,25.80
2017-09-30T14:19:51.392Z,25.03
2017-09-30T14:22:18.083Z,26.47
2017-09-30T14:24:44.749Z,28.70
2017-09-30T14:27:11.451Z,27.60
2017-09-30T14:29:38.119Z,29.23
2017-09-30T14:32:04.791Z,28.90
2017-09-30T14:34:31.458Z,32.80
2017-09-30T14:36:58.475Z,30.33
2017-09-30T14:39:25.140Z,29.63
2017-09-30T14:41:51.812Z,28.27
2017-09-30T14:44:18.475Z,27.40
2017-09-30T14:46:45.142Z,28.57
2017-09-30T14:49:11.810Z,28.90
2017-09-30T14:51:38.476Z,27.87
2017-09-30T14:54:05.139Z,26.90
2017-09-30T14:56:31.803Z,25.47
2017-09-30T14:58:58.472Z,27.70
2017-09-30T15:01:25.136Z,26.90
2017-09-30T15:03:51.840Z,28.00
2017-09-30T15:06:18.506Z,29.17
2017-09-30T15:08:45.171Z,28.97
2017-09-30T15:11:11.871Z,28.77
2017-09-30T15:13:38.539Z,30.03
2017-09-30T15:16:05.225Z,30.33
2017-09-30T15:18:31.887Z,31.80
2017-09-30T15:20:58.582Z,29.75
2017-09-30T15:23:25.259Z,32.35
2017-09-30T15:25:51.962Z,33.13
2017-09-30T15:28:18.630Z,34.58
2017-09-30T15:30:45.335Z,37.00
2017-09-30T15:33:11.999Z,36.58
2017-09-30T15:35:38.691Z,38.65
2017-09-30T15:38:05.363Z,38.88
2017-09-30T15:40:32.056Z,35.72
2017-09-30T15:42:58.739Z,36.97
2017-09-30T15:45:25.434Z,37.42
2017-09-30T15:47:52.107Z,38.00
2017-09-30T15:50:18.811Z,38.10
2017-09-30T15:52:45.488Z,38.63
2017-09-30T15:55:12.214Z,37.92
2017-09-30T15:57:38.874Z,38.83
2017-09-30T16:00:05.544Z,36.85
2017-09-30T16:02:32.236Z,40.05
2017-09-30T16:04:58.899Z,38.70
2017-09-30T16:07:25.587Z,40.50
2017-09-30T16:09:52.275Z,40.38
2017-09-30T16:12:18.958Z,41.40
2017-09-30T16:14:45.714Z,42.65
2017-09-30T16:17:12.404Z,40.75
2017-09-30T16:19:39.067Z,39.83
2017-09-30T16:22:05.779Z,41.83
2017-09-30T16:24:32.465Z,42.70
2017-09-30T16:26:59.131Z,40.47
2017-09-30T16:29:25.816Z,41.03
2017-09-30T16:31:52.488Z,43.15
2017-09-30T16:34:19.189Z,40.47
2017-09-30T16:36:45.854Z,39.20
2017-09-30T16:39:12.543Z,40.70
2017-09-30T16:41:39.202Z,41.13
2017-09-30T16:44:05.895Z,36.20
2017-09-30T16:46:32.575Z,24.50
2017-09-30T16:48:59.271Z,19.98
2017-09-30T16:51:25.940Z,10.57
2017-09-30T16:53:52.636Z,8.93
2017-09-30T16:56:19.338Z,9.10
2017-09-30T16:58:46.015Z,7.30
2017-09-30T17:01:12.672Z,6.05
2017-09-30T17:03:39.379Z,7.00
2017-09-30T17:06:06.040Z,7.30
2017-09-30T17:08:32.700Z,6.85
2017-09-30T17:10:59.364Z,6.87
2017-09-30T17:13:26.036Z,10.75
2017-09-30T17:15:52.719Z,6.93
2017-09-30T17:18:19.387Z,5.80
2017-09-30T17:20:46.078Z,6.70
2017-09-30T17:23:12.747Z,6.90
2017-09-30T17:25:39.433Z,7.18
2017-09-30T17:30:39.363Z,6.60
2017-09-30T17:33:06.019Z,5.60
2017-09-30T17:35:32.675Z,6.60
2017-09-30T17:37:59.335Z,5.00
2017-09-30T17:40:25.991Z,5.03
2017-09-30T17:42:52.646Z,4.35
2017-09-30T17:45:19.307Z,4.60
2017-09-30T17:47:45.967Z,4.80
2017-09-30T17:50:12.631Z,4.45
2017-09-30T17:52:39.327Z,5.35
2017-09-30T17:55:05.984Z,5.60
2017-09-30T17:57:32.660Z,7.00
2017-09-30T17:59:59.328Z,8.98
2017-09-30T18:02:26.024Z,9.43
2017-09-30T18:04:52.687Z,10.00
2017-09-30T18:07:19.351Z,11.43
2017-09-30T18:09:46.018Z,10.32
2017-09-30T18:12:12.676Z,9.10
2017-09-30T18:14:39.331Z,8.13
2017-09-30T18:17:05.995Z,6.90
2017-09-30T18:19:32.659Z,7.20
2017-09-30T18:21:59.323Z,6.60
2017-09-30T18:24:25.983Z,6.10
2017-09-30T18:26:52.636Z,6.90
2017-09-30T18:29:19.291Z,6.60
2017-09-30T18:31:45.950Z,5.75
2017-09-30T18:34:12.651Z,6.93
2017-09-30T18:36:39.311Z,6.95
2017-09-30T18:39:05.991Z,6.05
2017-09-30T18:41:32.656Z,7.20
2017-09-30T18:43:59.364Z,6.80
2017-09-30T18:46:26.032Z,7.18
2017-09-30T18:48:52.715Z,7.47
2017-09-30T18:51:19.380Z,6.75
2017-09-30T18:53:46.047Z,7.75
2017-09-30T18:56:12.711Z,8.05
2017-09-30T18:58:39.380Z,6.85
2017-09-30T19:01:06.043Z,7.32
2017-09-30T19:03:32.826Z,7.80
2017-09-30T19:05:59.499Z,7.82
2017-09-30T19:08:26.160Z,8.20
2017-09-30T19:10:52.852Z,8.52
2017-09-30T19:13:19.511Z,8.15
2017-09-30T19:15:46.219Z,7.20
2017-09-30T19:18:12.891Z,8.90
2017-09-30T19:20:39.582Z,7.43
2017-09-30T19:23:06.247Z,8.40
2017-09-30T19:25:32.911Z,8.63
2017-09-30T19:27:59.590Z,8.32
2017-09-30T19:30:26.255Z,8.77
2017-09-30T19:32:52.916Z,8.57
2017-09-30T19:35:19.581Z,9.57
2017-09-30T19:37:46.269Z,8.85
2017-09-30T19:40:12.926Z,9.45
2017-09-30T19:42:39.615Z,8.75
2017-09-30T19:45:06.284Z,8.23
2017-09-30T19:47:32.983Z,9.52
2017-09-30T19:49:59.651Z,9.95
2017-09-30T19:52:26.320Z,9.70
2017-09-30T19:54:52.990Z,9.02
2017-09-30T19:57:19.655Z,9.68
2017-09-30T19:59:46.343Z,9.13
2017-09-30T20:02:13.016Z,10.30
2017-09-30T20:04:39.700Z,9.18
2017-09-30T20:07:06.359Z,8.05
2017-09-30T20:09:33.143Z,8.70
2017-09-30T20:12:00.448Z,8.30
2017-09-30T20:14:27.148Z,8.82
2017-09-30T20:16:53.822Z,8.25
2017-09-30T20:19:20.523Z,7.85
2017-09-30T20:21:47.204Z,7.65
2017-09-30T20:24:13.909Z,6.93
2017-09-30T20:26:40.572Z,7.75
2017-09-30T20:29:07.253Z,6.30
2017-09-30T20:31:33.923Z,7.00
2017-09-30T20:34:00.648Z,7.22
2017-09-30T20:36:27.324Z,7.37
2017-09-30T20:38:53.979Z,7.32
2017-09-30T20:41:20.667Z,8.95
2017-09-30T20:43:47.360Z,7.07
2017-09-30T20:46:14.069Z,8.00
2017-09-30T20:48:40.735Z,7.35
2017-09-30T20:51:07.484Z,7.47
2017-09-30T20:53:34.139Z,8.88
2017-09-30T20:56:00.851Z,9.32
2017-09-30T20:58:27.507Z,8.00
2017-09-30T21:00:54.248Z,8.98
2017-09-30T21:03:20.954Z,8.80
2017-09-30T21:05:47.660Z,9.60
2017-09-30T21:08:14.335Z,9.07
2017-09-30T21:10:41.011Z,8.70
2017-09-30T21:13:07.673Z,9.68
2017-09-30T21:15:34.352Z,9.27
2017-09-30T21:18:01.027Z,10.80
2017-09-30T21:20:27.703Z,10.70
2017-09-30T21:22:54.364Z,9.07
2017-09-30T21:25:21.040Z,10.90
2017-09-30T21:27:47.712Z,9.68
2017-09-30T21:30:14.423Z,11.12
2017-09-30T21:32:41.091Z,9.88
2017-09-30T21:35:07.769Z,10.00
2017-09-30T21:37:34.432Z,11.25
2017-09-30T21:40:01.099Z,10.27
2017-09-30T21:42:27.788Z,11.23
2017-09-30T21:44:54.455Z,10.63
2017-09-30T21:47:21.142Z,10.20
2017-09-30T21:49:47.821Z,10.75
2017-09-30T21:52:14.590Z,11.32
2017-09-30T21:54:41.263Z,10.90
2017-09-30T21:57:07.931Z,12.77
2017-09-30T21:59:34.597Z,11.52
2017-09-30T22:02:01.263Z,11.18
2017-09-30T22:04:27.937Z,13.90
2017-09-30T22:06:54.604Z,12.40
2017-09-30T22:09:21.266Z,12.90
2017-09-30T22:11:47.931Z,11.93
2017-09-30T22:14:14.625Z,13.00
2017-09-30T22:16:41.287Z,13.80
2017-09-30T22:19:07.956Z,13.30
2017-09-30T22:21:34.623Z,13.10
2017-09-30T22:24:01.292Z,14.87
2017-09-30T22:26:27.955Z,12.32
2017-09-30T22:28:54.624Z,13.32
2017-09-30T22:31:21.295Z,14.85
2017-09-30T22:33:47.959Z,14.35
2017-09-30T22:36:14.623Z,14.95
2017-09-30T22:38:41.287Z,16.00
2017-09-30T22:41:07.956Z,15.00
2017-09-30T22:43:34.621Z,13.00
2017-09-30T22:46:01.292Z,12.80
2017-09-30T22:48:27.972Z,14.45
2017-09-30T22:50:54.671Z,14.02
2017-09-30T22:53:21.336Z,14.40
2017-09-30T22:55:48.008Z,13.75
2017-09-30T22:58:14.681Z,13.05
2017-09-30T23:00:41.357Z,13.82
2017-09-30T23:03:08.123Z,15.02
2017-09-30T23:05:34.788Z,15.07
2017-09-30T23:08:02.301Z,15.68
2017-09-30T23:10:28.972Z,14.30
2017-09-30T23:12:55.652Z,14.45
2017-09-30T23:15:22.368Z,16.02
2017-09-30T23:17:49.035Z,14.13
2017-09-30T23:20:15.711Z,13.85
2017-09-30T23:22:42.382Z,14.43
2017-09-30T23:25:09.071Z,14.87
2017-09-30T23:27:35.742Z,14.10
2017-09-30T23:30:02.431Z,16.73
2017-09-30T23:32:29.108Z,15.38
2017-09-30T23:34:55.803Z,15.65
2017-09-30T23:37:22.472Z,14.27
2017-09-30T23:39:49.168Z,14.30
2017-09-30T23:42:15.840Z,14.43
2017-09-30T23:44:42.512Z,15.35
2017-09-30T23:47:09.184Z,14.35
2017-09-30T23:49:35.857Z,14.75
2017-09-30T23:52:02.533Z,14.15
2017-09-30T23:54:29.200Z,15.10
2017-09-30T23:56:55.887Z,17.12
2017-09-30T23:59:22.552Z,15.38
